createdAt,value
2023-06-21T00:00:05.132Z,462.00
2023-06-21T00:01:05.188Z,459.00
2023-06-21T00:02:05.123Z,438.00
2023-06-21T00:03:05.257Z,457.00
2023-06-21T00:04:05.451Z,460.00
2023-06-21T00:05:05.288Z,455.00
2023-06-21T00:06:05.288Z,469.00
2023-06-21T00:07:05.463Z,460.00
2023-06-21T00:08:05.442Z,480.00
2023-06-21T00:09:05.507Z,444.00
2023-06-21T00:10:05.578Z,451.00
2023-06-21T00:11:05.556Z,452.00
2023-06-21T00:12:05.635Z,468.00
2023-06-21T00:13:05.639Z,442.00
2023-06-21T00:14:05.684Z,460.00
2023-06-21T00:15:05.724Z,452.00
2023-06-21T00:16:05.694Z,459.00
2023-06-21T00:17:05.768Z,457.00
2023-06-21T00:18:05.844Z,457.00
2023-06-21T00:19:05.759Z,456.00
2023-06-21T00:20:05.883Z,456.00
2023-06-21T00:21:05.943Z,459.00
2023-06-21T00:22:06.055Z,451.00
2023-06-21T00:23:06.072Z,451.00
2023-06-21T00:24:06.171Z,450.00
2023-06-21T00:25:06.249Z,452.00
2023-06-21T00:26:06.278Z,454.00
2023-06-21T00:27:06.330Z,493.00
2023-06-21T00:28:06.373Z,469.00
2023-06-21T00:29:06.456Z,472.00
2023-06-21T00:30:06.431Z,467.00
2023-06-21T00:31:06.500Z,469.00
2023-06-21T00:32:06.592Z,465.00
2023-06-21T00:33:06.642Z,437.00
2023-06-21T00:34:06.647Z,462.00
2023-06-21T00:35:06.680Z,485.00
2023-06-21T00:36:06.601Z,482.00
2023-06-21T00:37:06.689Z,459.00
2023-06-21T00:38:06.670Z,486.00
2023-06-21T00:39:06.741Z,464.00
2023-06-21T00:40:06.635Z,427.00
2023-06-21T00:41:06.612Z,449.00
2023-06-21T00:42:06.647Z,457.00
2023-06-21T00:43:06.729Z,457.00
2023-06-21T00:44:06.602Z,459.00
2023-06-21T00:45:06.649Z,463.00
2023-06-21T00:46:06.694Z,465.00
2023-06-21T00:47:06.761Z,466.00
2023-06-21T00:48:06.732Z,465.00
2023-06-21T00:49:06.718Z,460.00
2023-06-21T00:50:06.646Z,466.00
2023-06-21T00:51:06.659Z,465.00
2023-06-21T00:52:06.704Z,466.00
2023-06-21T00:53:06.659Z,462.00
2023-06-21T00:54:06.634Z,464.00
2023-06-21T00:55:06.638Z,461.00
2023-06-21T00:56:06.648Z,465.00
2023-06-21T00:57:06.687Z,464.00
2023-06-21T00:58:06.666Z,467.00
2023-06-21T00:59:06.763Z,465.00
2023-06-21T01:00:06.715Z,447.00
2023-06-21T01:01:06.897Z,464.00
2023-06-21T01:02:06.894Z,466.00
2023-06-21T01:03:06.954Z,463.00
2023-06-21T01:04:06.901Z,465.00
2023-06-21T01:05:06.988Z,469.00
2023-06-21T01:06:06.916Z,463.00
2023-06-21T01:07:06.927Z,472.00
2023-06-21T01:08:07.045Z,467.00
2023-06-21T01:09:07.051Z,464.00
2023-06-21T01:10:07.141Z,467.00
2023-06-21T01:11:07.197Z,462.00
2023-06-21T01:12:07.273Z,466.00
2023-06-21T01:13:07.276Z,466.00
2023-06-21T01:14:07.321Z,466.00
2023-06-21T01:15:07.307Z,465.00
2023-06-21T01:16:07.253Z,466.00
2023-06-21T01:17:07.370Z,465.00
2023-06-21T01:18:07.380Z,467.00
2023-06-21T01:19:07.405Z,469.00
2023-06-21T01:20:07.485Z,471.00
2023-06-21T01:21:07.567Z,471.00
2023-06-21T01:22:07.537Z,470.00
2023-06-21T01:23:07.614Z,471.00
2023-06-21T01:24:07.762Z,470.00
2023-06-21T01:25:07.698Z,468.00
2023-06-21T01:26:07.771Z,467.00
2023-06-21T01:27:07.897Z,464.00
2023-06-21T01:28:07.851Z,463.00
2023-06-21T01:29:07.806Z,462.00
2023-06-21T01:30:07.817Z,462.00
2023-06-21T01:31:07.899Z,460.00
2023-06-21T01:32:07.847Z,460.00
2023-06-21T01:33:07.833Z,459.00
2023-06-21T01:34:07.792Z,464.00
2023-06-21T01:35:10.137Z,464.00
2023-06-21T01:36:07.792Z,462.00
2023-06-21T01:37:07.830Z,463.00
2023-06-21T01:38:08.638Z,462.00
2023-06-21T01:39:07.760Z,464.00
2023-06-21T01:40:07.737Z,461.00
2023-06-21T01:41:07.710Z,461.00
2023-06-21T01:42:07.705Z,458.00
2023-06-21T01:43:07.785Z,460.00
2023-06-21T01:44:07.770Z,452.00
2023-06-21T01:45:07.680Z,462.00
2023-06-21T01:46:07.884Z,460.00
2023-06-21T01:47:07.720Z,459.00
2023-06-21T01:48:07.725Z,459.00
2023-06-21T01:49:07.692Z,462.00
2023-06-21T01:50:07.685Z,463.00
2023-06-21T01:51:07.741Z,462.00
2023-06-21T01:52:07.679Z,466.00
2023-06-21T01:53:07.654Z,466.00
2023-06-21T01:54:07.732Z,473.00
2023-06-21T01:55:07.692Z,471.00
2023-06-21T01:56:07.738Z,471.00
2023-06-21T01:57:07.650Z,471.00
2023-06-21T01:58:07.666Z,470.00
2023-06-21T01:59:07.664Z,470.00
2023-06-21T02:00:07.687Z,470.00
2023-06-21T02:01:07.713Z,472.00
2023-06-21T02:02:07.745Z,473.00
2023-06-21T02:03:07.783Z,472.00
2023-06-21T02:04:07.796Z,473.00
2023-06-21T02:05:07.885Z,484.00
2023-06-21T02:06:07.914Z,473.00
2023-06-21T02:07:07.964Z,477.00
2023-06-21T02:08:08.070Z,480.00
2023-06-21T02:09:08.082Z,482.00
2023-06-21T02:10:08.119Z,527.00
2023-06-21T02:11:08.164Z,478.00
2023-06-21T02:12:08.206Z,505.00
2023-06-21T02:13:08.181Z,491.00
2023-06-21T02:14:08.201Z,486.00
2023-06-21T02:15:08.155Z,491.00
2023-06-21T02:16:08.105Z,482.00
2023-06-21T02:17:08.646Z,485.00
2023-06-21T02:18:08.145Z,490.00
2023-06-21T02:19:08.125Z,494.00
2023-06-21T02:20:08.166Z,489.00
2023-06-21T02:21:08.162Z,489.00
2023-06-21T02:22:08.120Z,485.00
2023-06-21T02:23:08.156Z,484.00
2023-06-21T02:24:08.177Z,485.00
2023-06-21T02:25:08.098Z,502.00
2023-06-21T02:26:08.139Z,494.00
2023-06-21T02:27:08.177Z,509.00
2023-06-21T02:28:08.110Z,491.00
2023-06-21T02:29:08.108Z,487.00
2023-06-21T02:30:08.106Z,490.00
2023-06-21T02:31:08.099Z,483.00
2023-06-21T02:32:08.031Z,486.00
2023-06-21T02:33:08.046Z,505.00
2023-06-21T02:34:08.121Z,486.00
2023-06-21T02:35:08.043Z,494.00
2023-06-21T02:36:08.055Z,470.00
2023-06-21T02:37:08.014Z,474.00
2023-06-21T02:38:08.152Z,482.00
2023-06-21T02:39:08.028Z,483.00
2023-06-21T02:40:08.032Z,488.00
2023-06-21T02:41:08.077Z,489.00
2023-06-21T02:42:08.664Z,488.00
2023-06-21T02:43:08.016Z,491.00
2023-06-21T02:44:07.994Z,490.00
2023-06-21T02:45:08.001Z,490.00
2023-06-21T02:46:08.078Z,489.00
2023-06-21T02:47:07.998Z,488.00
2023-06-21T02:48:08.140Z,489.00
2023-06-21T02:49:08.026Z,491.00
2023-06-21T02:50:07.980Z,488.00
2023-06-21T02:51:07.994Z,487.00
2023-06-21T02:52:08.014Z,484.00
2023-06-21T02:53:08.063Z,486.00
2023-06-21T02:54:08.075Z,485.00
2023-06-21T02:55:08.130Z,486.00
2023-06-21T02:56:08.159Z,488.00
2023-06-21T02:57:08.130Z,489.00
2023-06-21T02:58:08.143Z,487.00
2023-06-21T02:59:08.168Z,486.00
2023-06-21T03:00:08.125Z,489.00
2023-06-21T03:01:08.210Z,487.00
2023-06-21T03:02:08.190Z,487.00
2023-06-21T03:03:08.283Z,488.00
2023-06-21T03:04:08.141Z,487.00
2023-06-21T03:05:08.186Z,489.00
2023-06-21T03:06:08.103Z,490.00
2023-06-21T03:07:08.057Z,486.00
2023-06-21T03:08:08.090Z,495.00
2023-06-21T03:09:08.008Z,492.00
2023-06-21T03:10:08.020Z,493.00
2023-06-21T03:11:08.061Z,492.00
2023-06-21T03:12:08.031Z,491.00
2023-06-21T03:13:08.067Z,492.00
2023-06-21T03:14:08.043Z,491.00
2023-06-21T03:15:08.021Z,491.00
2023-06-21T03:16:08.018Z,496.00
2023-06-21T03:17:08.022Z,492.00
2023-06-21T03:18:08.053Z,494.00
2023-06-21T03:19:08.112Z,494.00
2023-06-21T03:20:08.056Z,495.00
2023-06-21T03:21:07.996Z,491.00
2023-06-21T03:22:07.976Z,490.00
2023-06-21T03:23:07.957Z,490.00
2023-06-21T03:24:07.994Z,490.00
2023-06-21T03:25:07.912Z,492.00
2023-06-21T03:26:07.921Z,491.00
2023-06-21T03:27:07.920Z,490.00
2023-06-21T03:28:07.928Z,492.00
2023-06-21T03:29:08.047Z,491.00
2023-06-21T03:30:07.940Z,493.00
2023-06-21T03:31:07.913Z,496.00
2023-06-21T03:32:07.928Z,498.00
2023-06-21T03:33:08.009Z,500.00
2023-06-21T03:34:07.943Z,501.00
2023-06-21T03:35:07.901Z,500.00
2023-06-21T03:36:07.922Z,502.00
2023-06-21T03:37:07.980Z,501.00
2023-06-21T03:38:08.053Z,499.00
2023-06-21T03:39:08.033Z,500.00
2023-06-21T03:40:08.179Z,500.00
2023-06-21T03:41:08.134Z,498.00
2023-06-21T03:42:08.218Z,501.00
2023-06-21T03:43:08.208Z,500.00
2023-06-21T03:44:08.256Z,499.00
2023-06-21T03:45:08.289Z,497.00
2023-06-21T03:46:08.266Z,499.00
2023-06-21T03:47:08.163Z,496.00
2023-06-21T03:48:08.250Z,497.00
2023-06-21T03:49:08.208Z,496.00
2023-06-21T03:50:08.213Z,495.00
2023-06-21T03:51:08.136Z,498.00
2023-06-21T03:52:09.171Z,499.00
2023-06-21T03:53:08.181Z,501.00
2023-06-21T03:54:08.166Z,500.00
2023-06-21T03:55:08.144Z,501.00
2023-06-21T03:56:08.183Z,500.00
2023-06-21T03:57:08.147Z,498.00
2023-06-21T03:58:08.122Z,493.00
2023-06-21T03:59:08.117Z,489.00
2023-06-21T04:00:08.121Z,489.00
2023-06-21T04:01:08.147Z,487.00
2023-06-21T04:02:08.126Z,491.00
2023-06-21T04:03:08.245Z,481.00
2023-06-21T04:04:08.189Z,483.00
2023-06-21T04:05:08.104Z,483.00
2023-06-21T04:06:08.043Z,486.00
2023-06-21T04:07:08.076Z,484.00
2023-06-21T04:08:08.229Z,481.00
2023-06-21T04:09:09.039Z,483.00
2023-06-21T04:10:07.989Z,485.00
2023-06-21T04:11:08.026Z,489.00
2023-06-21T04:12:08.075Z,492.00
2023-06-21T04:13:08.053Z,494.00
2023-06-21T04:14:08.052Z,499.00
2023-06-21T04:15:08.092Z,494.00
2023-06-21T04:16:08.028Z,494.00
2023-06-21T04:17:08.009Z,495.00
2023-06-21T04:18:08.128Z,499.00
2023-06-21T04:19:08.048Z,500.00
2023-06-21T04:20:08.032Z,499.00
2023-06-21T04:21:07.990Z,498.00
2023-06-21T04:22:07.973Z,496.00
2023-06-21T04:23:08.042Z,498.00
2023-06-21T04:24:08.008Z,504.00
2023-06-21T04:25:07.979Z,507.00
2023-06-21T04:26:07.909Z,505.00
2023-06-21T04:27:07.949Z,507.00
2023-06-21T04:28:08.063Z,507.00
2023-06-21T04:29:07.978Z,505.00
2023-06-21T04:30:07.942Z,503.00
2023-06-21T04:31:07.929Z,507.00
2023-06-21T04:32:08.005Z,511.00
2023-06-21T04:33:08.081Z,507.00
2023-06-21T04:34:08.093Z,507.00
2023-06-21T04:35:08.139Z,507.00
2023-06-21T04:36:08.234Z,510.00
2023-06-21T04:37:08.226Z,509.00
2023-06-21T04:38:08.323Z,505.00
2023-06-21T04:39:08.390Z,507.00
2023-06-21T04:40:16.964Z,505.00
2023-06-21T04:41:09.354Z,510.00
2023-06-21T04:42:08.339Z,511.00
2023-06-21T04:43:08.377Z,506.00
2023-06-21T04:44:08.326Z,506.00
2023-06-21T04:45:08.307Z,501.00
2023-06-21T04:46:08.386Z,502.00
2023-06-21T04:47:08.279Z,499.00
2023-06-21T04:48:08.336Z,499.00
2023-06-21T04:49:08.367Z,498.00
2023-06-21T04:50:20.258Z,496.00
2023-06-21T04:51:09.271Z,495.00
2023-06-21T04:52:08.238Z,505.00
2023-06-21T04:53:08.316Z,496.00
2023-06-21T04:54:08.352Z,497.00
2023-06-21T04:55:08.224Z,494.00
2023-06-21T04:56:08.261Z,492.00
2023-06-21T04:57:08.193Z,496.00
2023-06-21T04:58:08.321Z,494.00
2023-06-21T04:59:08.221Z,510.00
2023-06-21T05:01:37.891Z,514.00
2023-06-21T05:02:27.778Z,509.00
2023-06-21T05:03:27.846Z,511.00
2023-06-21T05:04:27.750Z,512.00
2023-06-21T05:05:27.699Z,512.00
2023-06-21T05:06:27.704Z,509.00
2023-06-21T05:07:27.705Z,509.00
2023-06-21T05:08:27.706Z,509.00
2023-06-21T05:09:27.713Z,506.00
2023-06-21T05:10:27.957Z,507.00
2023-06-21T05:11:27.693Z,501.00
2023-06-21T05:12:27.647Z,502.00
2023-06-21T05:13:27.711Z,497.00
2023-06-21T05:14:27.660Z,514.00
2023-06-21T05:15:27.665Z,519.00
2023-06-21T05:16:27.779Z,496.00
2023-06-21T05:17:27.663Z,494.00
2023-06-21T05:18:27.750Z,470.00
2023-06-21T05:19:27.677Z,494.00
2023-06-21T05:20:27.888Z,486.00
2023-06-21T05:21:27.673Z,492.00
2023-06-21T05:22:27.646Z,493.00
2023-06-21T05:23:28.007Z,492.00
2023-06-21T05:24:28.923Z,495.00
2023-06-21T05:25:27.891Z,504.00
2023-06-21T05:26:27.709Z,490.00
2023-06-21T05:27:27.605Z,495.00
2023-06-21T05:28:27.630Z,501.00
2023-06-21T05:29:27.554Z,507.00
2023-06-21T05:30:27.760Z,504.00
2023-06-21T05:31:27.740Z,505.00
2023-06-21T05:32:27.677Z,504.00
2023-06-21T05:33:28.070Z,505.00
2023-06-21T05:34:27.614Z,472.00
2023-06-21T05:35:27.661Z,493.00
2023-06-21T05:36:27.698Z,484.00
2023-06-21T05:37:27.847Z,489.00
2023-06-21T05:38:27.602Z,496.00
2023-06-21T05:39:28.422Z,497.00
2023-06-21T05:40:27.915Z,490.00
2023-06-21T05:41:28.430Z,499.00
2023-06-21T05:42:27.572Z,503.00
2023-06-21T05:43:28.117Z,497.00
2023-06-21T05:44:27.502Z,484.00
2023-06-21T05:46:57.721Z,479.00
2023-06-21T05:47:46.986Z,481.00
2023-06-21T05:48:46.985Z,486.00
2023-06-21T05:49:47.020Z,480.00
2023-06-21T05:50:47.952Z,465.00
2023-06-21T05:51:47.340Z,478.00
2023-06-21T05:52:48.073Z,487.00
2023-06-21T05:53:47.278Z,462.00
2023-06-21T05:54:46.886Z,466.00
2023-06-21T05:55:47.085Z,472.00
2023-06-21T05:56:46.929Z,477.00
2023-06-21T05:57:46.927Z,477.00
2023-06-21T05:58:47.893Z,477.00
2023-06-21T05:59:46.969Z,465.00
2023-06-21T06:00:46.889Z,472.00
2023-06-21T06:01:46.866Z,467.00
2023-06-21T06:02:47.061Z,477.00
2023-06-21T06:03:47.554Z,468.00
2023-06-21T06:04:46.825Z,469.00
2023-06-21T06:05:46.931Z,476.00
2023-06-21T06:06:46.931Z,473.00
2023-06-21T06:07:47.037Z,482.00
2023-06-21T06:08:46.749Z,474.00
2023-06-21T06:09:46.883Z,472.00
2023-06-21T06:10:46.770Z,474.00
2023-06-21T06:11:46.894Z,473.00
2023-06-21T06:12:46.995Z,473.00
2023-06-21T06:13:46.978Z,470.00
2023-06-21T06:14:47.703Z,470.00
2023-06-21T06:15:47.418Z,473.00
2023-06-21T06:16:46.896Z,474.00
2023-06-21T06:17:46.835Z,476.00
2023-06-21T06:18:46.926Z,478.00
2023-06-21T06:19:47.250Z,478.00
2023-06-21T06:20:48.682Z,482.00
2023-06-21T06:21:47.080Z,483.00
2023-06-21T06:22:47.145Z,489.00
2023-06-21T06:23:46.937Z,491.00
2023-06-21T06:24:46.977Z,488.00
2023-06-21T06:25:47.197Z,491.00
2023-06-21T06:26:47.787Z,485.00
2023-06-21T06:27:47.059Z,487.00
2023-06-21T06:28:47.101Z,484.00
2023-06-21T06:29:47.543Z,478.00
2023-06-21T06:30:47.966Z,485.00
2023-06-21T06:31:47.345Z,483.00
2023-06-21T06:32:47.088Z,482.00
2023-06-21T06:33:48.040Z,483.00
2023-06-21T06:34:47.244Z,485.00
2023-06-21T06:35:47.352Z,489.00
2023-06-21T06:36:56.191Z,482.00
2023-06-21T06:43:13.310Z,479.00
2023-06-21T06:44:04.393Z,477.00
2023-06-21T06:45:04.470Z,480.00
2023-06-21T06:46:04.513Z,482.00
2023-06-21T06:47:04.281Z,488.00
2023-06-21T06:48:04.387Z,488.00
2023-06-21T06:49:04.315Z,484.00
2023-06-21T06:50:04.246Z,488.00
2023-06-21T06:51:04.574Z,494.00
2023-06-21T06:52:04.287Z,494.00
2023-06-21T06:53:04.898Z,481.00
2023-06-21T06:54:04.517Z,479.00
2023-06-21T06:55:04.454Z,478.00
2023-06-21T06:56:04.601Z,473.00
2023-06-21T06:57:04.494Z,480.00
2023-06-21T06:58:06.569Z,484.00
2023-06-21T06:59:04.514Z,477.00
2023-06-21T07:00:04.619Z,473.00
2023-06-21T07:01:05.027Z,479.00
2023-06-21T07:02:05.530Z,479.00
2023-06-21T07:03:04.729Z,482.00
2023-06-21T07:04:04.852Z,484.00
2023-06-21T07:05:04.787Z,473.00
2023-06-21T07:06:04.852Z,473.00
2023-06-21T07:07:06.293Z,484.00
2023-06-21T07:08:04.882Z,475.00
2023-06-21T07:09:04.781Z,478.00
2023-06-21T07:10:04.795Z,476.00
2023-06-21T07:11:05.009Z,469.00
2023-06-21T07:12:04.832Z,472.00
2023-06-21T07:13:04.828Z,479.00
2023-06-21T07:14:04.802Z,458.00
2023-06-21T07:15:05.329Z,466.00
2023-06-21T07:16:05.144Z,465.00
2023-06-21T07:17:04.937Z,467.00
2023-06-21T07:18:04.986Z,470.00
2023-06-21T07:19:04.754Z,474.00
2023-06-21T07:20:04.859Z,467.00
2023-06-21T07:21:04.990Z,469.00
2023-06-21T07:22:04.810Z,463.00
2023-06-21T07:23:05.311Z,466.00
2023-06-21T07:24:04.756Z,469.00
2023-06-21T07:25:04.786Z,466.00
2023-06-21T07:26:04.995Z,464.00
2023-06-21T07:27:04.717Z,463.00
2023-06-21T07:28:05.532Z,468.00
2023-06-21T07:29:04.742Z,461.00
2023-06-21T07:30:05.366Z,460.00
2023-06-21T07:31:04.773Z,458.00
2023-06-21T07:32:05.022Z,461.00
2023-06-21T07:33:05.622Z,461.00
2023-06-21T07:34:07.948Z,456.00
2023-06-21T07:35:05.823Z,462.00
2023-06-21T07:36:04.744Z,457.00
2023-06-21T07:37:04.971Z,468.00
2023-06-21T07:38:04.713Z,460.00
2023-06-21T07:39:05.888Z,453.00
2023-06-21T07:40:04.800Z,451.00
2023-06-21T07:41:04.720Z,455.00
2023-06-21T07:42:13.750Z,455.00
2023-06-21T07:43:04.627Z,455.00
2023-06-21T07:44:04.751Z,464.00
2023-06-21T07:45:05.507Z,473.00
2023-06-21T07:46:14.946Z,446.00
2023-06-21T07:47:04.663Z,464.00
2023-06-21T07:48:04.698Z,462.00
2023-06-21T07:49:04.848Z,458.00
2023-06-21T07:50:17.091Z,449.00
2023-06-21T07:51:05.772Z,457.00
2023-06-21T07:52:04.664Z,453.00
2023-06-21T07:53:04.607Z,456.00
2023-06-21T07:54:04.880Z,458.00
2023-06-21T07:55:04.561Z,449.00
2023-06-21T07:56:04.564Z,450.00
2023-06-21T07:57:04.651Z,463.00
2023-06-21T07:58:04.527Z,456.00
2023-06-21T07:59:04.595Z,449.00
2023-06-21T08:00:04.542Z,446.00
2023-06-21T08:01:04.572Z,447.00
2023-06-21T08:02:04.589Z,449.00
2023-06-21T08:03:04.677Z,449.00
2023-06-21T08:04:04.768Z,468.00
2023-06-21T08:05:04.717Z,437.00
2023-06-21T08:06:04.736Z,440.00
2023-06-21T08:07:05.458Z,442.00
2023-06-21T08:08:04.861Z,442.00
2023-06-21T08:09:04.872Z,440.00
2023-06-21T08:10:04.871Z,442.00
2023-06-21T08:11:04.880Z,454.00
2023-06-21T08:12:04.985Z,459.00
2023-06-21T08:13:05.023Z,467.00
2023-06-21T08:14:05.974Z,464.00
2023-06-21T08:15:05.014Z,457.00
2023-06-21T08:16:05.015Z,456.00
2023-06-21T08:17:05.064Z,469.00
2023-06-21T08:18:05.080Z,456.00
2023-06-21T08:19:05.096Z,451.00
2023-06-21T08:20:05.148Z,456.00
2023-06-21T08:21:05.155Z,454.00
2023-06-21T08:22:05.157Z,430.00
2023-06-21T08:23:05.135Z,440.00
2023-06-21T08:24:05.265Z,440.00
2023-06-21T08:25:05.303Z,441.00
2023-06-21T08:26:05.400Z,444.00
2023-06-21T08:27:05.454Z,446.00
2023-06-21T08:28:05.553Z,448.00
2023-06-21T08:29:05.620Z,447.00
2023-06-21T08:30:05.636Z,446.00
2023-06-21T08:31:05.686Z,454.00
2023-06-21T08:32:06.199Z,450.00
2023-06-21T08:33:05.830Z,458.00
2023-06-21T08:34:05.802Z,474.00
2023-06-21T08:35:05.824Z,451.00
2023-06-21T08:36:05.819Z,450.00
2023-06-21T08:37:06.149Z,446.00
2023-06-21T08:38:18.378Z,445.00
2023-06-21T08:39:05.981Z,449.00
2023-06-21T08:40:06.002Z,452.00
2023-06-21T08:41:05.916Z,448.00
2023-06-21T08:42:06.000Z,448.00
2023-06-21T08:43:05.946Z,446.00
2023-06-21T08:44:05.968Z,445.00
2023-06-21T08:45:05.886Z,453.00
2023-06-21T08:46:08.227Z,451.00
2023-06-21T08:47:06.062Z,454.00
2023-06-21T08:48:05.934Z,453.00
2023-06-21T08:49:05.890Z,448.00
2023-06-21T08:50:05.899Z,439.00
2023-06-21T08:51:05.979Z,432.00
2023-06-21T08:52:06.019Z,439.00
2023-06-21T08:53:05.884Z,438.00
2023-06-21T08:54:05.931Z,444.00
2023-06-21T08:55:05.869Z,443.00
2023-06-21T08:56:05.879Z,443.00
2023-06-21T08:57:06.055Z,441.00
2023-06-21T08:58:07.163Z,441.00
2023-06-21T08:59:06.525Z,444.00
2023-06-21T09:00:05.774Z,449.00
2023-06-21T09:01:05.861Z,456.00
2023-06-21T09:02:06.049Z,456.00
2023-06-21T09:03:06.052Z,455.00
2023-06-21T09:04:06.096Z,454.00
2023-06-21T09:05:05.856Z,458.00
2023-06-21T09:06:05.782Z,457.00
2023-06-21T09:07:05.813Z,438.00
2023-06-21T09:08:07.437Z,425.00
2023-06-21T09:09:06.115Z,437.00
2023-06-21T09:10:05.787Z,444.00
2023-06-21T09:11:05.727Z,443.00
2023-06-21T09:12:05.772Z,446.00
2023-06-21T09:13:05.708Z,448.00
2023-06-21T09:14:07.242Z,451.00
2023-06-21T09:15:05.747Z,448.00
2023-06-21T09:16:05.729Z,445.00
2023-06-21T09:17:05.722Z,447.00
2023-06-21T09:18:06.093Z,445.00
2023-06-21T09:19:05.741Z,448.00
2023-06-21T09:20:05.686Z,494.00
2023-06-21T09:21:05.669Z,462.00
2023-06-21T09:22:05.711Z,456.00
2023-06-21T09:23:05.686Z,394.00
2023-06-21T09:24:05.673Z,434.00
2023-06-21T09:25:05.661Z,439.00
2023-06-21T09:26:05.646Z,444.00
2023-06-21T09:27:05.676Z,462.00
2023-06-21T09:28:06.025Z,463.00
2023-06-21T09:29:05.602Z,443.00
2023-06-21T09:30:29.583Z,444.00
2023-06-21T09:31:06.665Z,445.00
2023-06-21T09:32:05.640Z,448.00
2023-06-21T09:33:05.763Z,449.00
2023-06-21T09:34:05.683Z,455.00
2023-06-21T09:35:05.670Z,451.00
2023-06-21T09:36:05.747Z,458.00
2023-06-21T09:37:05.618Z,456.00
2023-06-21T09:38:06.106Z,463.00
2023-06-21T09:39:05.584Z,456.00
2023-06-21T09:40:05.610Z,459.00
2023-06-21T09:41:05.741Z,439.00
2023-06-21T09:42:05.592Z,442.00
2023-06-21T09:43:06.047Z,444.00
2023-06-21T09:44:05.612Z,442.00
2023-06-21T09:45:05.704Z,440.00
2023-06-21T09:46:05.744Z,438.00
2023-06-21T09:47:05.738Z,442.00
2023-06-21T09:48:06.107Z,446.00
2023-06-21T09:49:05.787Z,453.00
2023-06-21T09:50:05.817Z,473.00
2023-06-21T09:51:05.901Z,459.00
2023-06-21T09:52:05.902Z,451.00
2023-06-21T09:53:05.938Z,450.00
2023-06-21T09:54:06.001Z,449.00
2023-06-21T09:55:06.013Z,444.00
2023-06-21T09:56:05.999Z,443.00
2023-06-21T09:57:06.005Z,442.00
2023-06-21T09:58:06.033Z,467.00
2023-06-21T09:59:06.142Z,454.00
2023-06-21T10:00:06.136Z,441.00
2023-06-21T10:01:06.140Z,449.00
2023-06-21T10:02:06.157Z,433.00
2023-06-21T10:03:06.658Z,446.00
2023-06-21T10:04:07.196Z,443.00
2023-06-21T10:05:06.186Z,442.00
2023-06-21T10:06:06.240Z,443.00
2023-06-21T10:07:06.202Z,445.00
2023-06-21T10:08:06.589Z,436.00
2023-06-21T10:09:06.353Z,452.00
2023-06-21T10:10:06.323Z,435.00
2023-06-21T10:11:06.392Z,440.00
2023-06-21T10:12:06.373Z,435.00
2023-06-21T10:13:06.551Z,441.00
2023-06-21T10:14:06.443Z,486.00
2023-06-21T10:15:06.476Z,447.00
2023-06-21T10:16:06.459Z,444.00
2023-06-21T10:17:06.532Z,478.00
2023-06-21T10:18:07.127Z,475.00
2023-06-21T10:19:06.584Z,470.00
2023-06-21T10:20:06.694Z,450.00
2023-06-21T10:21:06.825Z,452.00
2023-06-21T10:22:06.783Z,453.00
2023-06-21T10:23:06.933Z,452.00
2023-06-21T10:24:06.856Z,445.00
2023-06-21T10:25:06.977Z,453.00
2023-06-21T10:26:07.030Z,454.00
2023-06-21T10:27:07.059Z,511.00
2023-06-21T10:28:07.640Z,460.00
2023-06-21T10:29:07.151Z,460.00
2023-06-21T10:30:07.196Z,469.00
2023-06-21T10:31:07.244Z,455.00
2023-06-21T10:32:07.298Z,457.00
2023-06-21T10:33:07.663Z,434.00
2023-06-21T10:34:07.390Z,446.00
2023-06-21T10:35:07.370Z,444.00
2023-06-21T10:36:07.407Z,442.00
2023-06-21T10:37:07.626Z,444.00
2023-06-21T10:38:07.474Z,454.00
2023-06-21T10:39:07.611Z,447.00
2023-06-21T10:40:11.672Z,462.00
2023-06-21T10:41:07.639Z,456.00
2023-06-21T10:42:07.413Z,440.00
2023-06-21T10:43:07.366Z,465.00
2023-06-21T10:44:07.606Z,452.00
2023-06-21T10:45:07.377Z,451.00
2023-06-21T10:46:07.449Z,452.00
2023-06-21T10:47:07.371Z,445.00
2023-06-21T10:48:07.387Z,444.00
2023-06-21T10:49:07.618Z,453.00
2023-06-21T10:50:07.327Z,484.00
2023-06-21T10:51:07.331Z,467.00
2023-06-21T10:52:07.432Z,457.00
2023-06-21T10:53:07.427Z,453.00
2023-06-21T10:54:07.555Z,451.00
2023-06-21T10:55:07.459Z,467.00
2023-06-21T10:56:07.407Z,455.00
2023-06-21T10:57:07.460Z,459.00
2023-06-21T10:58:07.667Z,446.00
2023-06-21T10:59:07.533Z,440.00
2023-06-21T11:00:07.578Z,435.00
2023-06-21T11:01:07.614Z,433.00
2023-06-21T11:02:07.631Z,431.00
2023-06-21T11:03:07.735Z,430.00
2023-06-21T11:04:08.118Z,438.00
2023-06-21T11:05:07.821Z,433.00
2023-06-21T11:06:07.777Z,456.00
2023-06-21T11:07:07.829Z,458.00
2023-06-21T11:08:07.825Z,454.00
2023-06-21T11:09:08.099Z,446.00
2023-06-21T11:10:07.800Z,444.00
2023-06-21T11:11:07.775Z,429.00
2023-06-21T11:12:07.999Z,433.00
2023-06-21T11:13:08.923Z,443.00
2023-06-21T11:14:07.791Z,429.00
2023-06-21T11:15:07.794Z,427.00
2023-06-21T11:16:07.824Z,429.00
2023-06-21T11:17:07.759Z,440.00
2023-06-21T11:18:07.797Z,436.00
2023-06-21T11:19:07.762Z,440.00
2023-06-21T11:20:07.738Z,447.00
2023-06-21T11:21:07.760Z,444.00
2023-06-21T11:22:09.004Z,437.00
2023-06-21T11:23:08.804Z,457.00
2023-06-21T11:24:07.880Z,447.00
2023-06-21T11:25:07.818Z,454.00
2023-06-21T11:26:07.675Z,447.00
2023-06-21T11:27:07.696Z,441.00
2023-06-21T11:28:07.690Z,445.00
2023-06-21T11:29:08.134Z,465.00
2023-06-21T11:30:07.744Z,457.00
2023-06-21T11:31:07.944Z,461.00
2023-06-21T11:32:08.448Z,517.00
2023-06-21T11:33:07.744Z,513.00
2023-06-21T11:34:08.080Z,460.00
2023-06-21T11:35:07.733Z,479.00
2023-06-21T11:36:08.574Z,468.00
2023-06-21T11:37:07.727Z,472.00
2023-06-21T11:38:07.706Z,457.00
2023-06-21T11:39:07.714Z,456.00
2023-06-21T11:40:07.698Z,434.00
2023-06-21T11:41:07.673Z,460.00
2023-06-21T11:42:07.669Z,458.00
2023-06-21T11:43:07.686Z,455.00
2023-06-21T11:44:07.733Z,496.00
2023-06-21T11:45:07.737Z,456.00
2023-06-21T11:46:07.761Z,449.00
2023-06-21T11:47:07.734Z,459.00
2023-06-21T11:48:07.887Z,452.00
2023-06-21T11:49:08.577Z,449.00
2023-06-21T11:50:07.780Z,449.00
2023-06-21T11:51:07.852Z,452.00
2023-06-21T11:52:07.848Z,440.00
2023-06-21T11:53:07.860Z,446.00
2023-06-21T11:54:07.891Z,446.00
2023-06-21T11:55:07.854Z,452.00
2023-06-21T11:56:07.896Z,456.00
2023-06-21T11:57:07.889Z,453.00
2023-06-21T11:58:07.865Z,457.00
2023-06-21T11:59:07.852Z,437.00
2023-06-21T12:00:07.883Z,436.00
2023-06-21T12:01:07.824Z,445.00
2023-06-21T12:02:07.829Z,443.00
2023-06-21T12:03:08.030Z,443.00
2023-06-21T12:04:07.893Z,443.00
2023-06-21T12:05:08.091Z,451.00
2023-06-21T12:06:07.809Z,440.00
2023-06-21T12:07:07.782Z,442.00
2023-06-21T12:08:07.814Z,443.00
2023-06-21T12:09:07.849Z,464.00
2023-06-21T12:10:07.845Z,527.00
2023-06-21T12:11:07.859Z,475.00
2023-06-21T12:12:07.951Z,439.00
2023-06-21T12:13:07.934Z,437.00
2023-06-21T12:14:07.929Z,439.00
2023-06-21T12:15:07.958Z,452.00
2023-06-21T12:16:08.103Z,453.00
2023-06-21T12:17:07.938Z,479.00
2023-06-21T12:18:08.014Z,417.00
2023-06-21T12:19:07.954Z,448.00
2023-06-21T12:20:08.037Z,438.00
2023-06-21T12:21:08.117Z,438.00
2023-06-21T12:22:08.048Z,449.00
2023-06-21T12:23:08.155Z,457.00
2023-06-21T12:24:08.211Z,453.00
2023-06-21T12:25:08.264Z,469.00
2023-06-21T12:26:08.312Z,460.00
2023-06-21T12:27:08.321Z,453.00
2023-06-21T12:28:08.382Z,469.00
2023-06-21T12:29:08.487Z,458.00
2023-06-21T12:30:08.522Z,452.00
2023-06-21T12:31:08.665Z,448.00
2023-06-21T12:32:08.617Z,467.00
2023-06-21T12:33:08.687Z,452.00
2023-06-21T12:34:08.704Z,463.00
2023-06-21T12:35:08.693Z,437.00
2023-06-21T12:36:08.758Z,447.00